San Jose, Tobías Bolaños International Airport (MRPV)

NameTobías Bolaños International Airport
CitySan Jose
CountryCosta Rica
ICAOMRPV
IATASYQ
Altitude305 m
CoordinatesGoogle Map
Live Air TrafficLiveATC.net
METARMRPV 210000Z 02002KT 4500 +RA OVC020 19/19 A3004 NOSIG
2019-10-21 00:00:00 Wind: North (20°) 1.03 m/s - Visibility: 4500 m - Weather: Heavy Rain - Temperature: 19 °C - Dew point: 19 °C - Humidity: 100% - Pressure: 1017.27 hPa

Sorry, no flights used the airport in this database.